Time;durP1;ratioP1;P1;durP2;ratioP2;P2;SDS_P1;SDS_P2;PMS_P1;PMS_P2;Temp;Humidity;BMP_temperature;BMP_pressure;BME280_temperature;BME280_humidity;BME280_pressure;Samples;Min_cycle;Max_cycle;Signal;HPM_P1;HPM_P2
2022/08/07 00:02:28;;;;;;;26.63;23.87;;;;;;;17.27;94.03;94557.22;5000096;28;20696;-78
2022/08/07 00:05:13;;;;;;;26.77;23.93;;;;;;;17.07;94.69;94544.72;5008712;28;20251;-72
2022/08/07 00:07:57;;;;;;;28.80;24.57;;;;;;;17.05;95.69;94553.09;5010236;28;20221;-78
2022/08/07 00:10:41;;;;;;;27.33;24.13;;;;;;;17.22;94.93;94549.81;5008496;28;20728;-78
2022/08/07 00:13:25;;;;;;;29.87;23.80;;;;;;;17.24;95.19;94552.78;5005932;28;20207;-78
2022/08/07 00:16:10;;;;;;;29.80;26.43;;;;;;;17.03;95.86;94550.16;4995858;28;20204;-72
2022/08/07 00:18:54;;;;;;;30.93;26.00;;;;;;;17.17;96.07;94553.78;5008935;28;20203;-77
2022/08/07 00:21:38;;;;;;;29.93;25.03;;;;;;;17.12;96.61;94552.09;5008617;28;20439;-76
2022/08/07 00:24:22;;;;;;;27.20;24.20;;;;;;;16.98;97.03;94554.09;5005893;28;20270;-73
2022/08/07 00:27:06;;;;;;;26.73;23.93;;;;;;;17.01;97.12;94552.88;5023910;28;20277;-71
2022/08/07 00:29:50;;;;;;;27.70;24.70;;;;;;;16.87;98.90;94554.88;4999299;28;20204;-76
2022/08/07 00:32:34;;;;;;;27.37;24.47;;;;;;;16.95;98.23;94555.34;5006905;28;20196;-75
2022/08/07 00:35:19;;;;;;;27.53;24.73;;;;;;;17.11;97.02;94552.69;5005402;28;20215;-76
2022/08/07 00:38:04;;;;;;;28.43;24.63;;;;;;;17.12;96.89;94546.44;5001772;28;20223;-74
2022/08/07 00:40:49;;;;;;;26.80;23.90;;;;;;;17.09;96.39;94536.34;5000623;28;20253;-74
2022/08/07 00:43:33;;;;;;;30.07;24.83;;;;;;;17.17;96.32;94545.28;5013056;28;20687;-76
2022/08/07 00:46:17;;;;;;;31.87;24.40;;;;;;;17.11;96.37;94542.13;5006167;28;20195;-75
2022/08/07 00:49:02;;;;;;;25.93;22.90;;;;;;;16.92;98.29;94534.69;4990378;28;20208;-76
2022/08/07 00:51:46;;;;;;;26.30;23.53;;;;;;;17.04;97.55;94523.31;5001128;28;20204;-74
2022/08/07 00:54:31;;;;;;;26.57;23.00;;;;;;;17.11;97.03;94527.97;4998159;28;20287;-74
2022/08/07 00:57:16;;;;;;;26.20;23.40;;;;;;;17.19;96.10;94527.69;5007151;28;20208;-79
2022/08/07 01:00:01;;;;;;;27.03;23.83;;;;;;;17.20;95.90;94512.16;5007249;28;20200;-73
2022/08/07 01:02:45;;;;;;;25.93;23.13;;;;;;;17.18;95.99;94515.63;5007876;28;20230;-75
2022/08/07 01:05:31;;;;;;;24.77;22.10;;;;;;;17.11;96.32;94527.22;5000233;28;20212;-71
2022/08/07 01:08:15;;;;;;;22.70;20.30;;;;;;;17.28;95.07;94513.34;5004435;28;20208;-75
2022/08/07 01:10:59;;;;;;;20.80;18.70;;;;;;;16.95;96.75;94510.06;4997180;28;20653;-75
2022/08/07 01:13:44;;;;;;;21.30;19.07;;;;;;;17.14;95.31;94504.06;5000174;28;20228;-73
2022/08/07 01:16:28;;;;;;;19.93;17.87;;;;;;;17.13;95.47;94502.59;4998757;28;20204;-74
2022/08/07 01:19:14;;;;;;;20.47;17.33;;;;;;;17.13;94.82;94494.09;5005430;28;20551;-72
2022/08/07 01:22:00;;;;;;;18.57;16.70;;;;;;;17.21;94.69;94482.50;4999819;28;20208;-77
2022/08/07 01:24:50;;;;;;;17.67;14.67;;;;;;;16.91;94.87;94490.03;5009372;28;20569;-71
2022/08/07 01:27:34;;;;;;;16.70;14.67;;;;;;;17.13;94.25;94485.59;5006874;28;20204;-75
2022/08/07 01:30:20;;;;;;;16.13;14.13;;;;;;;17.12;93.77;94478.47;5011433;28;20204;-76
2022/08/07 01:33:04;;;;;;;14.47;12.97;;;;;;;16.90;94.33;94468.72;5005814;28;20199;-75
2022/08/07 01:35:49;;;;;;;13.90;12.50;;;;;;;16.98;92.55;94474.81;5007647;28;20212;-74
2022/08/07 01:38:34;;;;;;;13.27;11.90;;;;;;;16.93;91.83;94473.13;5005228;28;20199;-76
2022/08/07 01:41:26;;;;;;;12.20;10.90;;;;;;;17.01;88.76;94470.03;4997144;28;20226;-75
2022/08/07 01:44:12;;;;;;;13.73;11.43;;;;;;;17.07;87.50;94468.28;4993907;28;20207;-77
2022/08/07 01:46:57;;;;;;;12.77;11.47;;;;;;;17.03;87.15;94470.88;5005905;28;20234;-76
2022/08/07 01:49:44;;;;;;;11.17;9.97;;;;;;;16.98;86.74;94469.16;5003557;28;20200;-77
2022/08/07 01:52:30;;;;;;;11.00;9.73;;;;;;;16.80;87.22;94465.31;5001730;28;20223;-70
2022/08/07 01:55:15;;;;;;;12.37;9.80;;;;;;;16.77;87.65;94475.06;4998413;28;20232;-77
2022/08/07 01:58:02;;;;;;;10.73;9.67;;;;;;;16.77;87.76;94472.22;5000420;28;20204;-76
2022/08/07 02:00:54;;;;;;;12.00;10.20;;;;;;;16.44;88.85;94469.59;5005461;28;20613;-76
2022/08/07 02:03:48;;;;;;;10.47;8.80;;;;;;;16.58;88.03;94478.91;4998319;28;20204;-80
2022/08/07 02:06:36;;;;;;;13.30;10.20;;;;;;;16.53;88.07;94477.94;5000631;28;20195;-71
2022/08/07 02:09:25;;;;;;;13.27;10.10;;;;;;;16.50;87.72;94465.03;5004039;28;20208;-78
2022/08/07 02:12:18;;;;;;;11.10;9.87;;;;;;;16.49;87.56;94466.38;5000975;28;20220;-75
2022/08/07 02:15:10;;;;;;;13.00;10.30;;;;;;;16.34;88.45;94455.59;4999888;28;20725;-78
2022/08/07 02:18:00;;;;;;;13.17;9.10;;;;;;;16.32;87.60;94463.22;5001824;28;20222;-76
2022/08/07 02:20:47;;;;;;;17.77;8.40;;;;;;;16.33;86.02;94459.03;4994009;28;20204;-75
2022/08/07 02:23:35;;;;;;;9.70;7.27;;;;;;;16.35;85.26;94462.00;5004653;28;20196;-79
2022/08/07 02:26:20;;;;;;;7.50;6.80;;;;;;;16.26;84.92;94460.78;5007454;28;20241;-72
2022/08/07 02:29:09;;;;;;;7.83;7.13;;;;;;;16.27;84.91;94459.44;5006125;28;20217;-73
2022/08/07 02:31:54;;;;;;;9.20;6.87;;;;;;;16.37;83.05;94460.00;5017523;28;20208;-74
2022/08/07 02:34:40;;;;;;;7.10;6.20;;;;;;;16.30;82.68;94449.69;5006672;28;20633;-79
2022/08/07 02:37:27;;;;;;;6.67;5.90;;;;;;;16.40;81.95;94458.78;4984372;28;20196;-78
2022/08/07 02:40:12;;;;;;;9.10;5.87;;;;;;;16.19;81.97;94450.47;4998641;28;20222;-73
2022/08/07 02:43:00;;;;;;;7.73;5.37;;;;;;;16.42;81.14;94453.22;4992307;28;20540;-80
2022/08/07 02:45:47;;;;;;;8.50;5.30;;;;;;;16.39;80.69;94457.31;5004883;28;20234;-75
2022/08/07 02:48:32;;;;;;;8.93;5.40;;;;;;;16.11;82.17;94455.63;5004469;28;20698;-77
2022/08/07 02:51:19;;;;;;;7.03;5.87;;;;;;;16.13;82.81;94455.75;5008817;28;20208;-78
2022/08/07 02:54:06;;;;;;;7.57;5.47;;;;;;;16.26;81.90;94457.94;4997095;28;20224;-79
2022/08/07 02:56:53;;;;;;;9.57;5.57;;;;;;;16.15;81.98;94450.22;5009223;28;20207;-74
2022/08/07 02:59:44;;;;;;;7.00;5.70;;;;;;;16.10;82.32;94457.00;5001204;28;20669;-70
2022/08/07 03:02:29;;;;;;;7.10;6.03;;;;;;;16.09;82.37;94461.19;5012459;28;20195;-78
2022/08/07 03:05:15;;;;;;;5.17;4.67;;;;;;;15.95;82.59;94461.06;5002337;28;20255;-75
2022/08/07 03:08:00;;;;;;;6.37;4.70;;;;;;;16.20;81.42;94463.25;5008539;28;20676;-75
2022/08/07 03:10:46;;;;;;;5.43;4.70;;;;;;;15.99;82.15;94460.56;5031860;28;20273;-75
2022/08/07 03:13:32;;;;;;;5.73;4.33;;;;;;;16.11;81.05;94461.28;5014694;28;20207;-73
2022/08/07 03:16:18;;;;;;;6.27;4.57;;;;;;;16.32;80.12;94468.88;5004785;28;20211;-74
2022/08/07 03:19:03;;;;;;;5.00;4.50;;;;;;;16.05;81.20;94463.75;5014546;28;20196;-73
2022/08/07 03:21:50;;;;;;;5.53;4.23;;;;;;;16.00;81.33;94473.34;5010951;28;20605;-77
2022/08/07 03:24:34;;;;;;;7.27;4.10;;;;;;;16.03;80.88;94472.88;5010836;28;20310;-70
2022/08/07 03:27:20;;;;;;;5.83;4.87;;;;;;;16.00;81.73;94467.69;5030405;28;20274;-77
2022/08/07 03:30:05;;;;;;;5.97;4.63;;;;;;;15.99;81.02;94477.50;5015342;28;20199;-70
2022/08/07 03:32:53;;;;;;;5.50;4.53;;;;;;;16.08;82.08;94474.56;5008565;28;20523;-72
2022/08/07 03:35:41;;;;;;;8.80;4.50;;;;;;;16.03;82.32;94472.13;5011182;28;20195;-76
2022/08/07 03:38:26;;;;;;;6.20;5.20;;;;;;;16.04;82.75;94465.88;5007754;28;20196;-75
2022/08/07 03:41:11;;;;;;;5.43;4.90;;;;;;;15.92;83.33;94461.56;5004081;28;20600;-78
2022/08/07 03:43:56;;;;;;;5.93;5.37;;;;;;;16.01;83.71;94475.56;5004879;28;20303;-74
2022/08/07 03:46:41;;;;;;;8.77;6.03;;;;;;;15.92;84.77;94475.69;5004471;28;20275;-71
2022/08/07 03:49:26;;;;;;;7.43;6.13;;;;;;;16.06;84.31;94471.63;5006355;28;20207;-78
2022/08/07 03:52:11;;;;;;;7.87;5.80;;;;;;;15.97;84.77;94463.28;5014299;28;20211;-75
2022/08/07 03:54:57;;;;;;;9.07;5.90;;;;;;;16.10;83.77;94471.13;5013838;28;20261;-78
2022/08/07 03:57:42;;;;;;;6.43;5.70;;;;;;;16.10;83.29;94465.50;4997295;28;20200;-70
2022/08/07 04:00:27;;;;;;;11.20;5.43;;;;;;;16.03;83.85;94460.81;5006802;28;20203;-75
2022/08/07 04:03:12;;;;;;;6.30;5.33;;;;;;;16.00;84.01;94464.88;5012127;28;20203;-77
2022/08/07 04:05:58;;;;;;;7.53;5.50;;;;;;;15.96;84.06;94456.88;5006970;28;20220;-78
2022/08/07 04:08:44;;;;;;;5.27;4.77;;;;;;;15.90;84.07;94459.34;5003008;28;20196;-76
2022/08/07 04:11:31;;;;;;;5.97;5.20;;;;;;;15.93;83.46;94454.53;4990156;28;20208;-75
2022/08/07 04:14:16;;;;;;;8.60;4.80;;;;;;;15.68;83.75;94460.81;5005020;28;20218;-71
2022/08/07 04:17:01;;;;;;;4.20;3.90;;;;;;;15.84;82.79;94455.41;5001312;28;20551;-77
2022/08/07 04:19:45;;;;;;;8.30;4.37;;;;;;;15.69;82.77;94451.00;5008293;28;20203;-73
2022/08/07 04:22:32;;;;;;;5.27;4.10;;;;;;;15.82;81.97;94458.13;5000026;28;20223;-73
2022/08/07 04:25:21;;;;;;;4.30;3.90;;;;;;;15.71;82.07;94449.03;5008723;28;20302;-72
2022/08/07 04:28:07;;;;;;;3.67;3.33;;;;;;;15.78;81.17;94453.72;5000121;28;20668;-76
2022/08/07 04:30:51;;;;;;;7.13;3.53;;;;;;;15.95;79.62;94463.16;5010351;28;20318;-79
2022/08/07 04:33:39;;;;;;;3.67;3.37;;;;;;;15.66;80.72;94447.31;5004592;28;20672;-77
2022/08/07 04:36:23;;;;;;;4.07;3.33;;;;;;;15.56;80.33;94449.50;4988399;28;20200;-70
2022/08/07 04:39:08;;;;;;;5.27;3.20;;;;;;;15.84;79.75;94456.16;4998002;28;20204;-75
2022/08/07 04:41:55;;;;;;;4.27;3.13;;;;;;;15.74;78.86;94456.28;4988636;28;20196;-76
2022/08/07 04:44:39;;;;;;;3.63;2.83;;;;;;;15.85;78.22;94451.25;4999155;28;20240;-72
2022/08/07 04:47:32;;;;;;;4.00;3.23;;;;;;;16.16;77.78;94451.72;5006190;28;20196;-74
2022/08/07 04:50:34;;;;;;;2.80;2.57;;;;;;;15.96;77.40;94456.16;5010654;28;20196;-76
2022/08/07 04:53:40;;;;;;;4.63;3.27;;;;;;;16.29;76.22;94453.91;5001251;28;20658;-81
2022/08/07 04:56:48;;;;;;;3.80;3.20;;;;;;;16.22;76.57;94454.16;4988383;28;20228;-74
2022/08/07 04:59:39;;;;;;;4.27;3.40;;;;;;;16.28;76.08;94463.72;4995657;28;20208;-71
2022/08/07 05:02:46;;;;;;;3.80;3.37;;;;;;;16.29;76.33;94453.91;4994452;28;20236;-74
2022/08/07 05:05:53;;;;;;;3.40;2.70;;;;;;;16.20;77.46;94468.91;4995781;28;20375;-75
2022/08/07 05:08:47;;;;;;;4.13;3.20;;;;;;;16.47;76.29;94448.56;5007677;28;20712;-75
2022/08/07 05:11:45;;;;;;;3.10;2.80;;;;;;;16.06;77.50;94459.56;5021098;28;20739;-72
2022/08/07 05:14:39;;;;;;;4.00;3.50;;;;;;;16.23;76.80;94444.31;5008226;28;20279;-76
2022/08/07 05:17:27;;;;;;;4.63;3.17;;;;;;;16.11;77.97;94455.63;5002818;28;20203;-74
2022/08/07 05:20:39;;;;;;;5.67;3.57;;;;;;;16.15;78.03;94458.72;4996084;28;20312;-73
2022/08/07 05:23:38;;;;;;;4.20;3.57;;;;;;;15.99;77.96;94450.00;5002198;28;20227;-77
2022/08/07 05:26:26;;;;;;;6.83;3.13;;;;;;;16.28;77.73;94463.72;5012552;28;20293;-77
2022/08/07 05:29:18;;;;;;;5.30;2.93;;;;;;;16.05;77.96;94464.50;5006118;28;20299;-71
2022/08/07 05:32:03;;;;;;;5.13;3.30;;;;;;;16.49;76.47;94460.72;5007794;28;20610;-75
2022/08/07 05:34:49;;;;;;;7.37;3.70;;;;;;;16.56;75.85;94456.88;4998515;28;20197;-78
2022/08/07 05:37:35;;;;;;;5.37;3.70;;;;;;;16.90;74.45;94454.56;5009512;28;20203;-76
2022/08/07 05:40:23;;;;;;;4.30;3.30;;;;;;;16.72;75.11;94454.28;5000987;28;20657;-74
2022/08/07 05:43:07;;;;;;;8.60;3.47;;;;;;;16.71;74.78;94466.22;5006796;28;20226;-73
2022/08/07 05:45:52;;;;;;;4.03;3.03;;;;;;;16.71;74.40;94463.38;4998509;28;20408;-72
2022/08/07 05:48:39;;;;;;;4.03;3.63;;;;;;;16.75;74.20;94461.53;5006281;28;20283;-72
2022/08/07 05:51:24;;;;;;;4.77;3.20;;;;;;;16.92;73.87;94466.00;4996938;28;20192;-79
2022/08/07 05:54:09;;;;;;;7.13;3.03;;;;;;;16.71;73.87;94469.06;4998698;28;20210;-78
2022/08/07 05:56:55;;;;;;;3.87;3.47;;;;;;;17.04;73.82;94460.28;5007409;28;20732;-76
2022/08/07 05:59:41;;;;;;;5.30;3.63;;;;;;;17.13;73.26;94462.94;4992640;28;20199;-74
2022/08/07 06:02:29;;;;;;;4.23;3.67;;;;;;;17.08;72.93;94469.75;4997733;28;20204;-70
2022/08/07 06:05:17;;;;;;;4.07;3.77;;;;;;;17.26;73.54;94465.09;4999374;28;20314;-75
2022/08/07 06:08:07;;;;;;;3.57;3.27;;;;;;;17.60;72.95;94468.31;5007734;28;20204;-71
2022/08/07 06:10:52;;;;;;;5.70;3.53;;;;;;;17.87;70.85;94474.06;4997530;28;20208;-75
2022/08/07 06:13:37;;;;;;;4.33;3.93;;;;;;;17.60;71.91;94468.31;5008493;28;20695;-79
2022/08/07 06:16:25;;;;;;;5.77;3.50;;;;;;;17.45;72.75;94468.94;4995352;28;20204;-77
2022/08/07 06:19:11;;;;;;;4.70;3.90;;;;;;;17.71;71.44;94467.53;5009523;28;20207;-74
2022/08/07 06:21:57;;;;;;;5.37;3.90;;;;;;;17.55;71.62;94472.31;4999208;28;20200;-75
2022/08/07 06:24:41;;;;;;;4.73;3.60;;;;;;;17.19;72.68;94465.38;4998907;28;20696;-71
2022/08/07 06:27:26;;;;;;;4.60;3.50;;;;;;;17.38;72.40;94465.75;5003200;28;20282;-79
2022/08/07 06:30:10;;;;;;;6.37;4.20;;;;;;;17.28;72.81;94462.34;5007549;28;20195;-71
2022/08/07 06:32:55;;;;;;;5.40;4.20;;;;;;;17.93;70.94;94460.22;5007631;28;20207;-76
2022/08/07 06:35:39;;;;;;;6.53;3.77;;;;;;;18.02;69.56;94470.59;4993202;28;20192;-79
2022/08/07 06:38:24;;;;;;;4.20;3.77;;;;;;;17.94;70.79;94467.34;5004816;28;20239;-80
2022/08/07 06:41:14;;;;;;;5.07;4.13;;;;;;;18.36;69.81;94465.97;4997635;28;20208;-76
2022/08/07 06:44:02;;;;;;;5.33;3.97;;;;;;;18.67;67.71;94462.59;4995196;28;20223;-78
2022/08/07 06:46:51;;;;;;;4.93;3.80;;;;;;;19.26;66.99;94462.59;5005173;28;20331;-73
2022/08/07 06:49:35;;;;;;;4.20;3.37;;;;;;;18.54;67.38;94461.22;4996628;28;20228;-74
2022/08/07 06:52:21;;;;;;;8.73;3.50;;;;;;;19.35;65.60;94467.31;5006446;28;20200;-74
2022/08/07 06:55:10;;;;;;;4.17;3.70;;;;;;;19.25;65.68;94464.00;5006520;28;20200;-75
2022/08/07 06:57:59;;;;;;;4.80;3.40;;;;;;;19.21;65.40;94466.63;5006415;28;20231;-74
2022/08/07 07:00:46;;;;;;;4.70;3.67;;;;;;;19.25;66.91;94464.00;4993506;28;20204;-81
2022/08/07 07:03:32;;;;;;;7.70;3.63;;;;;;;19.33;64.55;94459.41;4996526;28;20200;-74
2022/08/07 07:06:16;;;;;;;3.83;3.40;;;;;;;19.70;65.42;94461.88;5023213;28;20223;-74
2022/08/07 07:09:24;;;;;;;6.13;3.43;;;;;;;19.51;65.57;94465.25;5005551;28;20664;-75
2022/08/07 07:12:20;;;;;;;3.77;3.47;;;;;;;20.09;63.75;94455.06;5003915;28;20212;-78
2022/08/07 07:15:27;;;;;;;5.10;2.87;;;;;;;19.30;63.67;94451.44;5002289;28;20192;-75
2022/08/07 07:18:22;;;;;;;3.63;3.33;;;;;;;19.43;63.85;94461.28;5007574;28;20239;-78
2022/08/07 07:21:16;;;;;;;3.45;3.15;;;;;;;19.22;63.80;94453.88;5007267;28;20286;-73
2022/08/07 07:24:00;;;;;;;4.82;3.03;;;;;;;19.76;63.07;94459.31;4994741;28;20227;-73
2022/08/07 07:26:50;;;;;;;4.27;3.30;;;;;;;20.00;64.15;94458.91;5009516;28;20196;-78
2022/08/07 07:29:42;;;;;;;3.30;3.00;;;;;;;20.04;62.54;94461.97;4997255;28;20727;-75
2022/08/07 07:32:30;;;;;;;5.50;2.40;;;;;;;19.46;63.60;94449.38;5004243;28;20203;-73
2022/08/07 07:35:36;;;;;;;4.45;2.90;;;;;;;20.51;61.71;94448.41;5004508;28;20275;-75
2022/08/07 07:38:24;;;;;;;5.80;2.83;;;;;;;20.68;61.84;94449.09;5004282;28;20605;-73
2022/08/07 07:41:11;;;;;;;2.25;2.15;;;;;;;20.40;62.04;94446.50;5004845;28;20574;-75
2022/08/07 07:43:57;;;;;;;2.60;2.10;;;;;;;20.54;61.94;94444.28;4998802;28;20677;-73
2022/08/07 07:46:42;;;;;;;3.05;2.67;;;;;;;19.51;63.19;94438.91;5001157;28;20208;-73
2022/08/07 07:49:28;;;;;;;5.25;2.38;;;;;;;20.77;60.55;94442.34;5001672;28;20204;-75
2022/08/07 07:52:14;;;;;;;4.22;2.30;;;;;;;20.75;60.49;94447.97;4998470;28;20547;-74
2022/08/07 07:55:00;;;;;;;3.00;2.70;;;;;;;20.39;60.98;94453.59;5011263;28;20199;-75
2022/08/07 07:57:48;;;;;;;2.83;2.53;;;;;;;20.04;62.31;94453.44;5007791;28;20200;-77
2022/08/07 08:00:32;;;;;;;2.47;2.20;;;;;;;20.61;62.02;94441.69;5001566;28;20672;-74
2022/08/07 08:03:19;;;;;;;3.78;2.67;;;;;;;20.48;61.69;94435.47;4997053;28;20201;-65
2022/08/07 08:06:05;;;;;;;4.05;2.33;;;;;;;19.45;63.91;94442.19;4996378;28;20758;-72
2022/08/07 08:08:52;;;;;;;2.72;2.42;;;;;;;20.10;62.87;94445.16;5007291;28;20669;-79
2022/08/07 08:11:36;;;;;;;3.10;2.80;;;;;;;19.95;62.81;94440.94;5006652;28;20238;-72
2022/08/07 08:14:21;;;;;;;3.20;2.90;;;;;;;20.03;62.75;94440.56;5001752;28;20196;-76
2022/08/07 08:17:09;;;;;;;3.25;2.90;;;;;;;19.91;63.14;94440.03;4999179;28;20195;-73
2022/08/07 08:20:01;;;;;;;4.50;2.75;;;;;;;20.27;63.10;94441.66;5008872;28;20250;-71
2022/08/07 08:28:57;;;;;;;5.53;2.72;;;;;;;20.38;62.10;94445.69;5002823;28;20317;-65
2022/08/07 08:31:41;;;;;;;3.72;2.65;;;;;;;20.57;62.46;94448.66;5007593;28;20207;-64
2022/08/07 08:34:27;;;;;;;3.30;2.47;;;;;;;19.77;63.04;94449.41;4999427;28;20196;-66
2022/08/07 08:37:13;;;;;;;3.92;2.47;;;;;;;20.27;62.09;94453.03;4998790;28;20235;-66
2022/08/07 08:39:59;;;;;;;3.80;2.58;;;;;;;20.86;60.37;94452.72;5010140;28;20196;-66
2022/08/07 08:42:53;;;;;;;3.97;2.70;;;;;;;19.83;61.53;94463.16;5007236;28;20486;-66
2022/08/07 08:46:14;;;;;;;2.92;2.70;;;;;;;20.07;61.10;94452.13;4999156;28;20224;-65
2022/08/07 08:49:03;;;;;;;3.67;3.00;;;;;;;20.82;61.25;94446.84;5008545;28;20200;-67
2022/08/07 08:51:55;;;;;;;5.95;2.33;;;;;;;20.38;61.58;94463.50;5010336;28;20208;-67
2022/08/07 08:54:51;;;;;;;6.35;2.53;;;;;;;20.18;60.86;94456.91;5004236;28;20200;-67
2022/08/07 08:57:59;;;;;;;2.47;2.28;;;;;;;20.58;59.39;94461.53;5010825;28;20200;-67
2022/08/07 09:00:50;;;;;;;3.90;2.78;;;;;;;20.48;59.72;94460.38;5001757;28;20200;-67
2022/08/07 09:04:14;;;;;;;5.18;3.10;;;;;;;20.30;61.17;94468.81;4999019;28;20199;-64
2022/08/07 09:07:07;;;;;;;4.15;2.22;;;;;;;20.22;60.08;94459.94;5001300;28;20208;-67
2022/08/07 09:10:06;;;;;;;2.42;2.22;;;;;;;20.36;60.26;94463.44;5011748;28;20275;-65
2022/08/07 09:13:03;;;;;;;2.92;2.63;;;;;;;20.14;61.19;94463.13;4998094;28;20591;-66
2022/08/07 09:16:20;;;;;;;2.55;2.35;;;;;;;19.90;60.87;94459.22;4995861;28;20196;-66
2022/08/07 09:19:20;;;;;;;3.50;2.70;;;;;;;20.09;60.55;94461.50;5010120;28;20203;-61
2022/08/07 09:22:47;;;;;;;4.72;2.53;;;;;;;20.33;60.05;94456.16;5001303;28;20205;-65
2022/08/07 09:25:43;;;;;;;4.35;2.30;;;;;;;20.37;59.51;94461.28;5002850;28;20633;-66
2022/08/07 09:28:34;;;;;;;3.78;2.70;;;;;;;20.31;59.85;94464.56;5004298;28;20653;-65
2022/08/07 09:31:55;;;;;;;5.03;2.72;;;;;;;19.82;61.78;94472.31;5003928;28;20203;-65
2022/08/07 09:35:16;;;;;;;4.20;2.40;;;;;;;19.78;61.26;94450.88;5003854;28;20826;-66
2022/08/07 09:38:13;;;;;;;3.13;2.83;;;;;;;19.96;60.50;94450.22;5006680;28;20681;-65
2022/08/07 09:41:36;;;;;;;4.47;2.40;;;;;;;20.14;60.06;94466.00;5007362;28;20200;-65
2022/08/07 09:44:44;;;;;;;2.65;2.45;;;;;;;20.43;59.65;94455.88;5003776;28;20216;-62
2022/08/07 09:47:56;;;;;;;4.22;3.03;;;;;;;20.44;60.77;94448.78;5006286;28;20200;-65
2022/08/07 09:50:58;;;;;;;4.63;2.70;;;;;;;20.48;59.44;94455.41;5008821;28;20203;-66
2022/08/07 09:53:44;;;;;;;2.90;2.58;;;;;;;20.54;58.37;94449.97;5006227;28;20289;-67
2022/08/07 09:56:58;;;;;;;2.35;2.00;;;;;;;20.43;57.99;94456.59;5005258;28;20278;-66
2022/08/07 10:00:12;;;;;;;5.75;2.75;;;;;;;20.32;60.18;94443.31;5006311;28;20283;-66
2022/08/07 10:03:18;;;;;;;6.65;2.03;;;;;;;20.18;57.96;94451.22;5000732;28;20653;-67
2022/08/07 10:06:20;;;;;;;3.13;2.35;;;;;;;20.85;58.31;94451.25;5000000;28;20227;-64
2022/08/07 10:09:20;;;;;;;6.22;2.85;;;;;;;21.46;56.55;94448.00;5008343;28;20672;-66
2022/08/07 10:12:28;;;;;;;2.75;2.50;;;;;;;20.82;57.40;94452.53;4999981;28;20203;-64
2022/08/07 10:15:34;;;;;;;4.00;2.40;;;;;;;21.05;59.64;94446.34;5004582;28;20195;-66
2022/08/07 10:18:39;;;;;;;4.07;2.40;;;;;;;21.54;56.65;94454.03;5009220;28;20253;-65
2022/08/07 10:21:42;;;;;;;4.50;2.25;;;;;;;22.11;54.98;94445.50;5008461;28;20195;-64
2022/08/07 10:24:59;;;;;;;3.05;2.13;;;;;;;22.27;54.35;94440.38;4995108;28;20219;-66
2022/08/07 10:28:01;;;;;;;2.92;2.10;;;;;;;21.82;56.78;94449.41;5009904;28;20204;-65
2022/08/07 10:30:54;;;;;;;2.72;2.40;;;;;;;21.37;58.37;94439.13;5002445;28;20679;-65
2022/08/07 10:34:12;;;;;;;3.10;2.30;;;;;;;21.90;57.02;94432.59;5005546;28;20454;-65
2022/08/07 10:37:20;;;;;;;2.42;1.95;;;;;;;22.21;55.39;94437.31;5002024;28;20553;-66
2022/08/07 10:40:20;;;;;;;3.13;1.95;;;;;;;22.84;55.00;94437.38;5003426;28;20196;-65
2022/08/07 10:43:20;;;;;;;2.75;1.98;;;;;;;23.41;53.28;94436.38;5000181;28;20195;-65
2022/08/07 10:46:29;;;;;;;3.10;2.20;;;;;;;22.56;54.65;94427.81;4997876;28;20668;-66
2022/08/07 10:49:20;;;;;;;2.10;2.00;;;;;;;21.84;55.96;94428.78;4999042;28;20208;-69
2022/08/07 10:52:20;;;;;;;3.20;1.98;;;;;;;21.59;56.34;94422.16;5008521;28;20207;-65
2022/08/07 10:55:16;;;;;;;2.70;2.35;;;;;;;21.98;55.81;94420.75;4997742;28;20196;-65
2022/08/07 10:58:31;;;;;;;2.28;2.08;;;;;;;22.77;54.81;94424.31;5006302;28;20200;-66
2022/08/07 11:01:15;;;;;;;2.67;2.00;;;;;;;22.80;54.44;94417.25;4999781;28;20205;-67
2022/08/07 11:04:36;;;;;;;1.98;1.80;;;;;;;22.98;53.77;94417.84;5009395;28;20677;-66
2022/08/07 11:07:35;;;;;;;3.45;1.75;;;;;;;22.79;54.11;94415.06;4993359;28;20249;-67
2022/08/07 11:10:38;;;;;;;2.25;1.48;;;;;;;22.35;55.93;94417.06;5003067;28;20279;-65
2022/08/07 11:13:22;;;;;;;1.90;1.75;;;;;;;23.11;54.03;94410.41;5007681;28;20219;-66
2022/08/07 11:16:21;;;;;;;7.53;1.80;;;;;;;23.85;52.08;94411.25;5003262;28;20196;-65
2022/08/07 11:19:30;;;;;;;1.85;1.73;;;;;;;23.57;50.42;94411.16;4995397;28;20227;-67
2022/08/07 11:22:23;;;;;;;2.08;1.85;;;;;;;22.42;53.88;94416.63;5003857;28;20208;-64
2022/08/07 11:25:14;;;;;;;2.03;1.83;;;;;;;22.25;54.58;94408.16;5008014;28;20300;-64
2022/08/07 11:28:13;;;;;;;3.42;1.90;;;;;;;22.10;54.51;94404.78;4999385;28;20232;-67
2022/08/07 11:31:09;;;;;;;2.13;1.58;;;;;;;22.84;54.10;94408.81;5012707;28;20200;-66
2022/08/07 11:34:16;;;;;;;4.55;1.75;;;;;;;22.56;52.57;94390.69;5009490;28;20212;-65
2022/08/07 11:37:09;;;;;;;2.42;1.75;;;;;;;22.59;53.48;94395.06;5006265;28;20199;-68
2022/08/07 11:40:12;;;;;;;4.22;1.90;;;;;;;23.51;52.46;94396.69;5010523;28;20203;-66
2022/08/07 11:43:11;;;;;;;2.30;1.80;;;;;;;24.08;49.39;94389.72;5005955;28;20203;-68
2022/08/07 11:46:33;;;;;;;1.88;1.77;;;;;;;24.58;50.38;94391.13;5001876;28;20249;-65
2022/08/07 11:49:55;;;;;;;4.00;1.90;;;;;;;24.24;51.00;94393.09;5002274;28;20250;-66
2022/08/07 11:53:01;;;;;;;1.75;1.40;;;;;;;24.08;50.22;94389.72;5003869;28;20240;-67
2022/08/07 11:56:16;;;;;;;1.75;1.65;;;;;;;23.71;50.81;94385.81;5007775;28;20192;-68
2022/08/07 11:59:22;;;;;;;3.70;1.90;;;;;;;23.61;51.11;94382.66;5009066;28;20207;-68
2022/08/07 12:02:28;;;;;;;2.03;1.85;;;;;;;23.11;51.23;94381.06;5003506;28;20691;-67
2022/08/07 12:05:28;;;;;;;2.50;2.13;;;;;;;24.03;50.23;94385.28;5006591;28;20239;-65
2022/08/07 12:08:31;;;;;;;2.00;1.65;;;;;;;23.75;50.26;94385.94;5010129;28;20200;-67
2022/08/07 12:11:21;;;;;;;3.22;2.13;;;;;;;23.10;51.33;94382.47;4999302;28;20236;-68
2022/08/07 12:14:17;;;;;;;3.53;1.80;;;;;;;23.06;51.41;94377.38;5002531;28;20735;-66
2022/08/07 12:17:10;;;;;;;2.65;1.98;;;;;;;23.64;50.71;94375.59;4999697;28;20293;-65
2022/08/07 12:20:01;;;;;;;2.42;1.83;;;;;;;22.75;52.08;94378.50;5007320;28;20731;-68
2022/08/07 12:23:02;;;;;;;4.40;1.75;;;;;;;23.97;50.54;94374.41;4999405;28;20383;-66
2022/08/07 12:26:15;;;;;;;1.98;1.75;;;;;;;23.57;49.21;94365.38;5005657;28;20665;-67
2022/08/07 12:29:19;;;;;;;2.20;2.10;;;;;;;23.79;49.26;94374.63;5009339;28;20235;-68
2022/08/07 12:32:27;;;;;;;4.15;2.03;;;;;;;23.07;50.21;94373.13;5006558;28;20278;-66
2022/08/07 12:35:13;;;;;;;5.70;1.70;;;;;;;23.74;51.03;94367.31;4994481;28;20291;-66
2022/08/07 12:37:59;;;;;;;1.70;1.60;;;;;;;23.93;49.89;94373.56;5012530;28;20227;-65
2022/08/07 12:40:45;;;;;;;2.10;1.90;;;;;;;23.95;50.16;94367.88;5000815;28;20557;-66
2022/08/07 12:43:34;;;;;;;3.03;1.90;;;;;;;23.33;50.15;94364.63;4993076;28;20203;-65
2022/08/07 12:46:50;;;;;;;1.98;1.83;;;;;;;24.50;49.08;94368.00;5001353;28;20204;-67
2022/08/07 12:49:52;;;;;;;2.25;2.05;;;;;;;23.81;49.89;94358.91;5006987;28;20199;-67
2022/08/07 12:53:03;;;;;;;2.03;1.73;;;;;;;23.15;50.75;94361.19;5003481;28;20203;-66
2022/08/07 12:56:11;;;;;;;4.13;2.05;;;;;;;23.37;49.73;94359.03;5006569;28;20200;-66
2022/08/07 12:58:57;;;;;;;2.72;1.70;;;;;;;24.16;49.76;94358.47;5010402;28;20196;-65
2022/08/07 13:01:54;;;;;;;5.15;1.95;;;;;;;24.03;50.47;94362.38;5005807;28;20668;-65
2022/08/07 13:04:53;;;;;;;4.78;2.08;;;;;;;23.83;50.01;94356.09;5005850;28;20693;-68
2022/08/07 13:07:55;;;;;;;2.85;1.85;;;;;;;23.42;49.86;94359.88;5006515;28;20207;-69
2022/08/07 13:11:00;;;;;;;2.60;2.13;;;;;;;23.87;48.72;94350.50;5000336;28;20279;-67
2022/08/07 13:13:57;;;;;;;2.58;1.85;;;;;;;24.59;49.38;94352.47;4999678;28;20208;-65
2022/08/07 13:16:52;;;;;;;3.17;1.80;;;;;;;24.19;48.02;94351.44;4997160;28;20192;-68
2022/08/07 13:20:04;;;;;;;2.72;1.88;;;;;;;24.41;50.31;94349.13;4997344;28;20200;-68
2022/08/07 13:23:28;;;;;;;3.83;1.90;;;;;;;23.49;52.02;94345.13;4996623;28;20191;-66
2022/08/07 13:26:32;;;;;;;3.47;2.05;;;;;;;24.19;50.90;94345.69;4989420;28;20231;-65
2022/08/07 13:29:22;;;;;;;2.75;1.75;;;;;;;24.30;48.81;94344.56;5005730;28;20211;-65
2022/08/07 13:32:15;;;;;;;1.95;1.60;;;;;;;23.57;49.10;94348.22;5003127;28;20196;-66
2022/08/07 13:35:06;;;;;;;2.30;1.90;;;;;;;23.27;50.98;94339.41;4995730;28;20195;-65
2022/08/07 13:38:00;;;;;;;2.80;2.05;;;;;;;24.19;49.30;94342.84;4997157;28;20203;-66